Terminal Aerodrome Forecast
Issued by NWS

Home | Current Version | Previous Version | Text Only | Print | Product List | Glossary On
Versions: 1 2 3 4 5 6 7 8 9 10 11 12 13 14 15 16 17 18 19
000
FTUS44 KBMX 222330
TAFANB
TAF
KANB 222330Z 2300/2324 19003KT P6SM VCSH BKN035 OVC100
     FM230600 17008KT P6SM OVC015
     FM231700 20010G18KT P6SM BKN050 PROB30 2322/2324 4SM TS
      BKN050CB=

USA.gov is the U.S. government's official web portal to all federal, state and local government web resources and services.